GLET42 YSNW-YWLM
Flight info
| Callsign | GLET42 |
|---|---|
| Flight time | 1h 38m |
| Altitude | 5500 |
| Route | MSV DCT KADOM DCT MVI/N0151F070 DCT RUTOS DCT MAKOR DCT NBB DCT WLM |
| Aircraft | H60/L-VGDW/C |
Departure
| Time | 2026-05-01 09:43 |
|---|---|
| Airport | Naval Air Station Nowra - HMAS Albatross (YSNW) |
Arrival
| Time | 2026-05-01 11:22 |
|---|---|
| Airport | Newcastle Airport (YWLM) |
| Time | Latitude | Longitude | Altitude | Speed | Heading |
|---|---|---|---|---|---|
| 2026-05-01 09:38 | -34.94508 | 150.53442 | 358 ft | 0 kts | 134° |
| 2026-05-01 09:40 | -34.94509 | 150.53442 | 358 ft | 0 kts | 130° |
| 2026-05-01 09:40 | -34.94510 | 150.53444 | 361 ft | 1 kts | 139° |
| 2026-05-01 09:41 | -34.94539 | 150.53424 | 379 ft | 9 kts | 201° |
| 2026-05-01 09:41 | -34.94681 | 150.52866 | 681 ft | 82 kts | 282° |
| 2026-05-01 09:41 | -34.94164 | 150.52455 | 779 ft | 102 kts | 359° |
| 2026-05-01 09:42 | -34.93471 | 150.52789 | 876 ft | 116 kts | 35° |
| 2026-05-01 09:42 | -34.92965 | 150.53601 | 952 ft | 125 kts | 52° |
| 2026-05-01 09:42 | -34.91777 | 150.55336 | 930 ft | 138 kts | 34° |
| 2026-05-01 09:43 | -34.90332 | 150.56972 | 845 ft | 143 kts | 42° |
| 2026-05-01 09:43 | -34.89617 | 150.57764 | 964 ft | 136 kts | 37° |
| 2026-05-01 09:43 | -34.88919 | 150.58542 | 1076 ft | 135 kts | 40° |
| 2026-05-01 09:44 | -34.87314 | 150.59811 | 1066 ft | 143 kts | 24° |
| 2026-05-01 09:44 | -34.86398 | 150.60277 | 1158 ft | 137 kts | 13° |
| 2026-05-01 09:44 | -34.85456 | 150.60429 | 1290 ft | 138 kts | 8° |
| 2026-05-01 09:45 | -34.84513 | 150.60419 | 1653 ft | 134 kts | 357° |
| 2026-05-01 09:45 | -34.82532 | 150.60046 | 1897 ft | 150 kts | 349° |
| 2026-05-01 09:45 | -34.81531 | 150.59790 | 2127 ft | 145 kts | 350° |
| 2026-05-01 09:46 | -34.80521 | 150.59497 | 2223 ft | 155 kts | 348° |
| 2026-05-01 09:46 | -34.79467 | 150.59134 | 2325 ft | 161 kts | 342° |
| 2026-05-01 09:46 | -34.78443 | 150.58487 | 2338 ft | 170 kts | 333° |
| 2026-05-01 09:46 | -34.77362 | 150.57828 | 2272 ft | 177 kts | 336° |
| 2026-05-01 09:47 | -34.76275 | 150.57150 | 2256 ft | 175 kts | 334° |
| 2026-05-01 09:47 | -34.75203 | 150.56441 | 2246 ft | 176 kts | 332° |
| 2026-05-01 09:47 | -34.74178 | 150.55621 | 2335 ft | 174 kts | 326° |
| 2026-05-01 09:47 | -34.73181 | 150.54785 | 2436 ft | 171 kts | 330° |
| 2026-05-01 09:48 | -34.72172 | 150.54068 | 2656 ft | 164 kts | 334° |
| 2026-05-01 09:48 | -34.71173 | 150.53404 | 2833 ft | 164 kts | 332° |
| 2026-05-01 09:48 | -34.70185 | 150.52733 | 3004 ft | 165 kts | 334° |
| 2026-05-01 09:48 | -34.69139 | 150.52083 | 2942 ft | 175 kts | 334° |
| 2026-05-01 09:49 | -34.68036 | 150.51424 | 2916 ft | 176 kts | 335° |
| 2026-05-01 09:49 | -34.66900 | 150.50801 | 2872 ft | 179 kts | 336° |
| 2026-05-01 09:49 | -34.65792 | 150.50131 | 2927 ft | 176 kts | 334° |
| 2026-05-01 09:49 | -34.64679 | 150.49478 | 2972 ft | 178 kts | 336° |
| 2026-05-01 09:50 | -34.63548 | 150.48871 | 3011 ft | 181 kts | 339° |
| 2026-05-01 09:50 | -34.62313 | 150.48489 | 2971 ft | 183 kts | 356° |
| 2026-05-01 09:50 | -34.61083 | 150.48714 | 3023 ft | 180 kts | 21° |
| 2026-05-01 09:50 | -34.60173 | 150.49754 | 3011 ft | 178 kts | 52° |
| 2026-05-01 09:51 | -34.59541 | 150.49880 | 3423 ft | 150 kts | 273° |
| 2026-05-01 09:51 | -34.60074 | 150.49002 | 2840 ft | 148 kts | 231° |
| 2026-05-01 09:51 | -34.60067 | 150.47806 | 2969 ft | 149 kts | 311° |
| 2026-05-01 09:51 | -34.59143 | 150.47755 | 3022 ft | 150 kts | 32° |
| 2026-05-01 09:52 | -34.58434 | 150.48753 | 3095 ft | 156 kts | 48° |
| 2026-05-01 09:52 | -34.57644 | 150.49651 | 3165 ft | 158 kts | 31° |
| 2026-05-01 09:52 | -34.56608 | 150.50030 | 3279 ft | 151 kts | 358° |
| 2026-05-01 09:52 | -34.55748 | 150.49857 | 3165 ft | 118 kts | 329° |
| 2026-05-01 09:53 | -34.55054 | 150.49246 | 3194 ft | 123 kts | 324° |
| 2026-05-01 09:53 | -34.54405 | 150.48680 | 3245 ft | 107 kts | 324° |
| 2026-05-01 09:53 | -34.53806 | 150.48244 | 3315 ft | 91 kts | 330° |
| 2026-05-01 09:53 | -34.53246 | 150.47855 | 3397 ft | 95 kts | 332° |
| 2026-05-01 09:54 | -34.52650 | 150.47430 | 3371 ft | 105 kts | 328° |
| 2026-05-01 09:54 | -34.52007 | 150.46960 | 3274 ft | 102 kts | 333° |
| 2026-05-01 09:54 | -34.51413 | 150.46625 | 3277 ft | 90 kts | 333° |
| 2026-05-01 09:54 | -34.50852 | 150.46237 | 3406 ft | 101 kts | 329° |
| 2026-05-01 09:55 | -34.50433 | 150.45497 | 3398 ft | 115 kts | 291° |
| 2026-05-01 09:55 | -34.49952 | 150.44737 | 3492 ft | 102 kts | 326° |
| 2026-05-01 09:55 | -34.49404 | 150.44264 | 3440 ft | 99 kts | 314° |
| 2026-05-01 09:55 | -34.48900 | 150.43753 | 3304 ft | 97 kts | 324° |
| 2026-05-01 09:56 | -34.48327 | 150.43347 | 3104 ft | 106 kts | 348° |
| 2026-05-01 09:56 | -34.47433 | 150.43112 | 2992 ft | 147 kts | 352° |
| 2026-05-01 09:56 | -34.46518 | 150.42660 | 3289 ft | 135 kts | 337° |
| 2026-05-01 09:56 | -34.45654 | 150.42310 | 3566 ft | 129 kts | 4° |
| 2026-05-01 09:57 | -34.44989 | 150.42970 | 3657 ft | 134 kts | 66° |
| 2026-05-01 09:57 | -34.45100 | 150.44144 | 3559 ft | 154 kts | 98° |
| 2026-05-01 09:57 | -34.45380 | 150.45415 | 3516 ft | 156 kts | 98° |
| 2026-05-01 09:57 | -34.45571 | 150.46751 | 3150 ft | 173 kts | 86° |
| 2026-05-01 09:58 | -34.45365 | 150.48279 | 2081 ft | 198 kts | 68° |
| 2026-05-01 09:58 | -34.45010 | 150.49812 | 1864 ft | 178 kts | 69° |
| 2026-05-01 09:58 | -34.44665 | 150.51003 | 2500 ft | 124 kts | 63° |
| 2026-05-01 09:58 | -34.45093 | 150.51494 | 2520 ft | 124 kts | 215° |
| 2026-05-01 09:59 | -34.45408 | 150.50592 | 2539 ft | 118 kts | 253° |
| 2026-05-01 09:59 | -34.45614 | 150.49612 | 2400 ft | 125 kts | 253° |
| 2026-05-01 09:59 | -34.45735 | 150.48607 | 2237 ft | 107 kts | 303° |
| 2026-05-01 09:59 | -34.45308 | 150.48454 | 2143 ft | 64 kts | 58° |
| 2026-05-01 10:00 | -34.45197 | 150.48981 | 1945 ft | 65 kts | 65° |
| 2026-05-01 10:00 | -34.45137 | 150.49448 | 1908 ft | 55 kts | 76° |
| 2026-05-01 10:00 | -34.45365 | 150.49899 | 2126 ft | 93 kts | 148° |
| 2026-05-01 10:00 | -34.46059 | 150.49886 | 2479 ft | 103 kts | 189° |
| 2026-05-01 10:01 | -34.46418 | 150.49416 | 3233 ft | 77 kts | 276° |
| 2026-05-01 10:01 | -34.46158 | 150.48700 | 3403 ft | 115 kts | 308° |
| 2026-05-01 10:01 | -34.45574 | 150.47920 | 3358 ft | 127 kts | 314° |
| 2026-05-01 10:01 | -34.44973 | 150.47182 | 3367 ft | 118 kts | 317° |
| 2026-05-01 10:02 | -34.44400 | 150.46533 | 3303 ft | 112 kts | 315° |
| 2026-05-01 10:02 | -34.43821 | 150.45891 | 3202 ft | 117 kts | 314° |
| 2026-05-01 10:02 | -34.43348 | 150.45047 | 3040 ft | 126 kts | 299° |
| 2026-05-01 10:02 | -34.42860 | 150.44150 | 2863 ft | 129 kts | 319° |
| 2026-05-01 10:03 | -34.42313 | 150.44408 | 2728 ft | 97 kts | 82° |
| 2026-05-01 10:03 | -34.42542 | 150.45067 | 2811 ft | 90 kts | 108° |
| 2026-05-01 10:03 | -34.42900 | 150.45818 | 2958 ft | 116 kts | 112° |
| 2026-05-01 10:03 | -34.43326 | 150.46674 | 3044 ft | 117 kts | 110° |
| 2026-05-01 10:04 | -34.43727 | 150.47527 | 3017 ft | 121 kts | 107° |
| 2026-05-01 10:04 | -34.44128 | 150.48448 | 2926 ft | 123 kts | 104° |
| 2026-05-01 10:04 | -34.44481 | 150.49332 | 2927 ft | 105 kts | 102° |
| 2026-05-01 10:04 | -34.44762 | 150.50069 | 3045 ft | 90 kts | 100° |
| 2026-05-01 10:05 | -34.45033 | 150.50780 | 3092 ft | 98 kts | 105° |
| 2026-05-01 10:05 | -34.45400 | 150.51529 | 3077 ft | 116 kts | 118° |
| 2026-05-01 10:05 | -34.45939 | 150.52405 | 2980 ft | 138 kts | 116° |
| 2026-05-01 10:05 | -34.46482 | 150.53447 | 2567 ft | 155 kts | 111° |
| 2026-05-01 10:06 | -34.47292 | 150.54015 | 2454 ft | 123 kts | 162° |
| 2026-05-01 10:06 | -34.47718 | 150.53584 | 2461 ft | 96 kts | 273° |
| 2026-05-01 10:06 | -34.47268 | 150.52852 | 2436 ft | 123 kts | 316° |
| 2026-05-01 10:06 | -34.46569 | 150.52121 | 2361 ft | 137 kts | 317° |
| 2026-05-01 10:07 | -34.45923 | 150.51451 | 2402 ft | 98 kts | 317° |
| 2026-05-01 10:07 | -34.45328 | 150.50885 | 2219 ft | 117 kts | 321° |
| 2026-05-01 10:07 | -34.44760 | 150.50182 | 2071 ft | 107 kts | 266° |
| 2026-05-01 10:07 | -34.44963 | 150.49394 | 1891 ft | 88 kts | 204° |
| 2026-05-01 10:08 | -34.45133 | 150.49268 | 1865 ft | 0 kts | 76° |
| 2026-05-01 10:14 | -34.45098 | 150.49477 | 1866 ft | 69 kts | 71° |
| 2026-05-01 10:15 | -34.44996 | 150.49297 | 1958 ft | 88 kts | 214° |
| 2026-05-01 10:15 | -34.45118 | 150.49368 | 1971 ft | 45 kts | 49° |
| 2026-05-01 10:15 | -34.44760 | 150.49617 | 2009 ft | 74 kts | 357° |
| 2026-05-01 10:15 | -34.44264 | 150.49283 | 2187 ft | 87 kts | 311° |
| 2026-05-01 10:16 | -34.44333 | 150.48698 | 2375 ft | 73 kts | 200° |
| 2026-05-01 10:16 | -34.44775 | 150.48910 | 2428 ft | 74 kts | 100° |
| 2026-05-01 10:16 | -34.44014 | 150.48059 | 2428 ft | 119 kts | 310° |
| 2026-05-01 10:17 | -34.43557 | 150.47176 | 2592 ft | 132 kts | 298° |
| 2026-05-01 10:17 | -34.42982 | 150.44785 | 2562 ft | 155 kts | 292° |
| 2026-05-01 10:17 | -34.42301 | 150.43817 | 2471 ft | 154 kts | 330° |
| 2026-05-01 10:18 | -34.40134 | 150.42827 | 2288 ft | 173 kts | 343° |
| 2026-05-01 10:18 | -34.38992 | 150.42339 | 2258 ft | 175 kts | 340° |
| 2026-05-01 10:18 | -34.37852 | 150.41878 | 2254 ft | 166 kts | 339° |
| 2026-05-01 10:19 | -34.36865 | 150.41220 | 2356 ft | 159 kts | 330° |
| 2026-05-01 10:19 | -34.35878 | 150.40555 | 2348 ft | 165 kts | 335° |
| 2026-05-01 10:19 | -34.34781 | 150.40099 | 2277 ft | 169 kts | 345° |
| 2026-05-01 10:20 | -34.34328 | 150.40454 | 2782 ft | 115 kts | 161° |
| 2026-05-01 10:20 | -34.34400 | 150.39867 | 2157 ft | 144 kts | 344° |
| 2026-05-01 10:20 | -34.33292 | 150.39461 | 1548 ft | 178 kts | 343° |
| 2026-05-01 10:20 | -34.32117 | 150.38942 | 1494 ft | 177 kts | 336° |
| 2026-05-01 10:21 | -34.31061 | 150.38238 | 1666 ft | 173 kts | 330° |
| 2026-05-01 10:21 | -34.29269 | 150.36229 | 1848 ft | 179 kts | 313° |
| 2026-05-01 10:21 | -34.28215 | 150.35429 | 1743 ft | 175 kts | 343° |
| 2026-05-01 10:22 | -34.25739 | 150.35417 | 1564 ft | 169 kts | 5° |
| 2026-05-01 10:22 | -34.23510 | 150.35323 | 1813 ft | 168 kts | 344° |
| 2026-05-01 10:23 | -34.22519 | 150.35375 | 1861 ft | 147 kts | 351° |
| 2026-05-01 10:23 | -34.21020 | 150.35825 | 1075 ft | 148 kts | 22° |
| 2026-05-01 10:23 | -34.20058 | 150.36417 | 1089 ft | 156 kts | 28° |
| 2026-05-01 10:24 | -34.18339 | 150.37706 | 1598 ft | 139 kts | 29° |
| 2026-05-01 10:24 | -34.16430 | 150.38606 | 1652 ft | 161 kts | 20° |
| 2026-05-01 10:25 | -34.14639 | 150.40114 | 1949 ft | 161 kts | 56° |
| 2026-05-01 10:25 | -34.13958 | 150.42873 | 1988 ft | 178 kts | 70° |
| 2026-05-01 10:26 | -34.13214 | 150.44058 | 2041 ft | 185 kts | 30° |
| 2026-05-01 10:26 | -34.11910 | 150.44040 | 1906 ft | 197 kts | 346° |
| 2026-05-01 10:26 | -34.09273 | 150.43066 | 1640 ft | 196 kts | 348° |
| 2026-05-01 10:27 | -34.06694 | 150.42960 | 1810 ft | 175 kts | 2° |
| 2026-05-01 10:27 | -34.04378 | 150.43034 | 1707 ft | 163 kts | 3° |
| 2026-05-01 10:28 | -34.03239 | 150.43219 | 1662 ft | 165 kts | 9° |
| 2026-05-01 10:28 | -34.00934 | 150.43277 | 1455 ft | 181 kts | 348° |
| 2026-05-01 10:28 | -33.99696 | 150.42984 | 1330 ft | 181 kts | 349° |
| 2026-05-01 10:29 | -33.97267 | 150.42921 | 1279 ft | 173 kts | 2° |
| 2026-05-01 10:29 | -33.96085 | 150.42882 | 1489 ft | 164 kts | 351° |
| 2026-05-01 10:30 | -33.94199 | 150.41199 | 1523 ft | 185 kts | 314° |
| 2026-05-01 10:30 | -33.92209 | 150.39201 | 1537 ft | 181 kts | 328° |
| 2026-05-01 10:31 | -33.90192 | 150.37444 | 1603 ft | 186 kts | 320° |
| 2026-05-01 10:31 | -33.88191 | 150.35671 | 1854 ft | 169 kts | 330° |
| 2026-05-01 10:32 | -33.86194 | 150.34244 | 2138 ft | 161 kts | 331° |
| 2026-05-01 10:32 | -33.85244 | 150.33668 | 2277 ft | 163 kts | 337° |
| 2026-05-01 10:32 | -33.83231 | 150.32326 | 2451 ft | 169 kts | 327° |
| 2026-05-01 10:33 | -33.81263 | 150.30899 | 2768 ft | 156 kts | 345° |
| 2026-05-01 10:33 | -33.79116 | 150.30321 | 2932 ft | 166 kts | 351° |
| 2026-05-01 10:34 | -33.77961 | 150.30219 | 2906 ft | 164 kts | 5° |
| 2026-05-01 10:34 | -33.76884 | 150.30611 | 2841 ft | 166 kts | 20° |
| 2026-05-01 10:34 | -33.75753 | 150.31045 | 2714 ft | 174 kts | 16° |
| 2026-05-01 10:35 | -33.73635 | 150.31160 | 3495 ft | 137 kts | 6° |
| 2026-05-01 10:35 | -33.72769 | 150.31220 | 4010 ft | 115 kts | 351° |
| 2026-05-01 10:35 | -33.72013 | 150.30798 | 4286 ft | 126 kts | 327° |
| 2026-05-01 10:35 | -33.71284 | 150.30081 | 4364 ft | 144 kts | 323° |
| 2026-05-01 10:36 | -33.69472 | 150.28693 | 4237 ft | 160 kts | 338° |
| 2026-05-01 10:36 | -33.68459 | 150.28304 | 4437 ft | 148 kts | 349° |
| 2026-05-01 10:36 | -33.67428 | 150.28181 | 4502 ft | 148 kts | 357° |
| 2026-05-01 10:37 | -33.66415 | 150.28008 | 4637 ft | 149 kts | 349° |
| 2026-05-01 10:37 | -33.64385 | 150.27338 | 4807 ft | 149 kts | 348° |
| 2026-05-01 10:37 | -33.63366 | 150.27035 | 4888 ft | 149 kts | 346° |
| 2026-05-01 10:38 | -33.62364 | 150.26727 | 4898 ft | 152 kts | 355° |
| 2026-05-01 10:38 | -33.61308 | 150.26709 | 4895 ft | 153 kts | 4° |
| 2026-05-01 10:38 | -33.60283 | 150.26927 | 5090 ft | 139 kts | 15° |
| 2026-05-01 10:38 | -33.59439 | 150.27261 | 5597 ft | 126 kts | 23° |
| 2026-05-01 10:39 | -33.58686 | 150.27731 | 6087 ft | 114 kts | 32° |
| 2026-05-01 10:39 | -33.58037 | 150.28245 | 6602 ft | 115 kts | 34° |
| 2026-05-01 10:39 | -33.57315 | 150.28947 | 6441 ft | 148 kts | 38° |
| 2026-05-01 10:39 | -33.56493 | 150.29718 | 5540 ft | 165 kts | 45° |
| 2026-05-01 10:40 | -33.55715 | 150.30670 | 5867 ft | 156 kts | 47° |
| 2026-05-01 10:40 | -33.55007 | 150.31682 | 5957 ft | 163 kts | 47° |
| 2026-05-01 10:40 | -33.54055 | 150.32660 | 4760 ft | 209 kts | 33° |
| 2026-05-01 10:40 | -33.52845 | 150.33646 | 3919 ft | 218 kts | 32° |
| 2026-05-01 10:41 | -33.51595 | 150.34625 | 3393 ft | 210 kts | 32° |
| 2026-05-01 10:41 | -33.50444 | 150.35617 | 3115 ft | 196 kts | 44° |
| 2026-05-01 10:41 | -33.49000 | 150.38196 | 3299 ft | 188 kts | 57° |
| 2026-05-01 10:42 | -33.48152 | 150.39377 | 3301 ft | 189 kts | 43° |
| 2026-05-01 10:42 | -33.47134 | 150.40418 | 3333 ft | 190 kts | 40° |
| 2026-05-01 10:42 | -33.46068 | 150.41347 | 3409 ft | 189 kts | 34° |
| 2026-05-01 10:42 | -33.45017 | 150.42261 | 3381 ft | 192 kts | 44° |
| 2026-05-01 10:43 | -33.44076 | 150.43445 | 3240 ft | 197 kts | 45° |
| 2026-05-01 10:43 | -33.43030 | 150.44467 | 3011 ft | 204 kts | 42° |
| 2026-05-01 10:43 | -33.42074 | 150.45807 | 2078 ft | 221 kts | 51° |
| 2026-05-01 10:43 | -33.41217 | 150.47299 | 1553 ft | 210 kts | 59° |
| 2026-05-01 10:44 | -33.40539 | 150.48451 | 2537 ft | 118 kts | 36° |
| 2026-05-01 10:44 | -33.40109 | 150.49287 | 2267 ft | 144 kts | 90° |
| 2026-05-01 10:44 | -33.39962 | 150.50554 | 2080 ft | 165 kts | 64° |
| 2026-05-01 10:44 | -33.39114 | 150.51410 | 2197 ft | 171 kts | 26° |
| 2026-05-01 10:45 | -33.37883 | 150.51633 | 2044 ft | 181 kts | 18° |
| 2026-05-01 10:45 | -33.37295 | 150.52829 | 2015 ft | 172 kts | 70° |
| 2026-05-01 10:45 | -33.36929 | 150.54233 | 1928 ft | 181 kts | 73° |
| 2026-05-01 10:45 | -33.36490 | 150.55699 | 1666 ft | 191 kts | 63° |
| 2026-05-01 10:46 | -33.35774 | 150.57069 | 1157 ft | 199 kts | 56° |
| 2026-05-01 10:46 | -33.34764 | 150.58101 | 727 ft | 205 kts | 17° |
| 2026-05-01 10:46 | -33.33906 | 150.58923 | 1010 ft | 139 kts | 22° |
| 2026-05-01 10:46 | -33.33062 | 150.58298 | 721 ft | 154 kts | 342° |
| 2026-05-01 10:47 | -33.32212 | 150.58768 | 1172 ft | 133 kts | 52° |
| 2026-05-01 10:47 | -33.31685 | 150.59769 | 1230 ft | 155 kts | 46° |
| 2026-05-01 10:47 | -33.31071 | 150.60867 | 1225 ft | 162 kts | 65° |
| 2026-05-01 10:47 | -33.30679 | 150.62148 | 1265 ft | 164 kts | 59° |
| 2026-05-01 10:48 | -33.30011 | 150.63277 | 1319 ft | 167 kts | 57° |
| 2026-05-01 10:48 | -33.29147 | 150.64156 | 1483 ft | 166 kts | 31° |
| 2026-05-01 10:48 | -33.28251 | 150.65006 | 1635 ft | 162 kts | 39° |
| 2026-05-01 10:48 | -33.27324 | 150.65865 | 1632 ft | 169 kts | 31° |
| 2026-05-01 10:49 | -33.26339 | 150.66594 | 1603 ft | 170 kts | 42° |
| 2026-05-01 10:49 | -33.25763 | 150.67802 | 1519 ft | 167 kts | 36° |
| 2026-05-01 10:49 | -33.25104 | 150.67261 | 1666 ft | 151 kts | 255° |
| 2026-05-01 10:49 | -33.25822 | 150.66586 | 1802 ft | 141 kts | 186° |
| 2026-05-01 10:50 | -33.26534 | 150.67169 | 1790 ft | 141 kts | 107° |
| 2026-05-01 10:50 | -33.26028 | 150.68170 | 1748 ft | 143 kts | 50° |
| 2026-05-01 10:50 | -33.25333 | 150.69032 | 1727 ft | 148 kts | 52° |
| 2026-05-01 10:50 | -33.24755 | 150.70146 | 1668 ft | 167 kts | 62° |
| 2026-05-01 10:51 | -33.24195 | 150.71349 | 1832 ft | 164 kts | 59° |
| 2026-05-01 10:51 | -33.23698 | 150.72568 | 1804 ft | 172 kts | 62° |
| 2026-05-01 10:51 | -33.23114 | 150.73914 | 1378 ft | 193 kts | 68° |
| 2026-05-01 10:51 | -33.22831 | 150.75418 | 1625 ft | 180 kts | 76° |
| 2026-05-01 10:52 | -33.22440 | 150.76851 | 1729 ft | 178 kts | 70° |
| 2026-05-01 10:52 | -33.21938 | 150.78195 | 1864 ft | 168 kts | 84° |
| 2026-05-01 10:52 | -33.21942 | 150.79393 | 1718 ft | 155 kts | 86° |
| 2026-05-01 10:52 | -33.21896 | 150.80791 | 1555 ft | 177 kts | 84° |
| 2026-05-01 10:53 | -33.22009 | 150.82274 | 1450 ft | 181 kts | 96° |
| 2026-05-01 10:53 | -33.21835 | 150.83664 | 1272 ft | 176 kts | 61° |
| 2026-05-01 10:53 | -33.20829 | 150.84474 | 929 ft | 180 kts | 23° |
| 2026-05-01 10:53 | -33.19752 | 150.85214 | 712 ft | 180 kts | 34° |
| 2026-05-01 10:54 | -33.18992 | 150.86372 | 736 ft | 182 kts | 73° |
| 2026-05-01 10:54 | -33.19263 | 150.87543 | 1538 ft | 89 kts | 107° |
| 2026-05-01 10:54 | -33.19483 | 150.88535 | 623 ft | 159 kts | 74° |
| 2026-05-01 10:54 | -33.19052 | 150.89600 | 1011 ft | 141 kts | 48° |
| 2026-05-01 10:55 | -33.18430 | 150.90536 | 1176 ft | 137 kts | 51° |
| 2026-05-01 10:55 | -33.17904 | 150.91483 | 1334 ft | 140 kts | 58° |
| 2026-05-01 10:55 | -33.17491 | 150.92418 | 1412 ft | 145 kts | 61° |
| 2026-05-01 10:55 | -33.17146 | 150.93434 | 1837 ft | 131 kts | 68° |
| 2026-05-01 10:56 | -33.17065 | 150.93741 | 1927 ft | 132 kts | 70° |
| 2026-05-01 10:56 | -33.16913 | 150.94373 | 1767 ft | 153 kts | 72° |
| 2026-05-01 10:56 | -33.16625 | 150.95686 | 1617 ft | 168 kts | 72° |
| 2026-05-01 10:56 | -33.16397 | 150.97026 | 1654 ft | 167 kts | 78° |
| 2026-05-01 10:57 | -33.16204 | 150.98422 | 1663 ft | 168 kts | 77° |
| 2026-05-01 10:57 | -33.16031 | 150.99869 | 1397 ft | 180 kts | 76° |
| 2026-05-01 10:57 | -33.15763 | 151.01282 | 1493 ft | 174 kts | 74° |
| 2026-05-01 10:57 | -33.15052 | 151.02060 | 1852 ft | 158 kts | 338° |
| 2026-05-01 10:58 | -33.14859 | 151.00766 | 1740 ft | 193 kts | 249° |
| 2026-05-01 10:58 | -33.15675 | 151.00455 | 1067 ft | 120 kts | 67° |
| 2026-05-01 10:58 | -33.15435 | 151.01469 | 1007 ft | 141 kts | 68° |
| 2026-05-01 10:58 | -33.15027 | 151.02579 | 1167 ft | 150 kts | 67° |
| 2026-05-01 10:59 | -33.14701 | 151.03812 | 1234 ft | 157 kts | 71° |
| 2026-05-01 10:59 | -33.14550 | 151.05081 | 1287 ft | 153 kts | 91° |
| 2026-05-01 10:59 | -33.14887 | 151.06270 | 1130 ft | 155 kts | 105° |
| 2026-05-01 10:59 | -33.15178 | 151.07455 | 1267 ft | 141 kts | 95° |
| 2026-05-01 11:00 | -33.15334 | 151.08600 | 1331 ft | 145 kts | 97° |
| 2026-05-01 11:00 | -33.15574 | 151.09822 | 1223 ft | 152 kts | 96° |
| 2026-05-01 11:00 | -33.15811 | 151.11089 | 1042 ft | 161 kts | 100° |
| 2026-05-01 11:00 | -33.16146 | 151.12311 | 1047 ft | 154 kts | 101° |
| 2026-05-01 11:01 | -33.16513 | 151.13490 | 1122 ft | 149 kts | 105° |
| 2026-05-01 11:01 | -33.16879 | 151.14651 | 1150 ft | 149 kts | 102° |
| 2026-05-01 11:01 | -33.17110 | 151.15762 | 1470 ft | 131 kts | 100° |
| 2026-05-01 11:01 | -33.17408 | 151.16791 | 1578 ft | 136 kts | 105° |
| 2026-05-01 11:02 | -33.17729 | 151.17885 | 1601 ft | 139 kts | 99° |
| 2026-05-01 11:02 | -33.18002 | 151.19047 | 1515 ft | 153 kts | 102° |
| 2026-05-01 11:02 | -33.18309 | 151.20296 | 1528 ft | 161 kts | 103° |
| 2026-05-01 11:02 | -33.18590 | 151.21613 | 1437 ft | 169 kts | 97° |
| 2026-05-01 11:03 | -33.18838 | 151.22990 | 1458 ft | 169 kts | 97° |
| 2026-05-01 11:03 | -33.18928 | 151.24381 | 1465 ft | 172 kts | 90° |
| 2026-05-01 11:03 | -33.19029 | 151.25845 | 1299 ft | 182 kts | 91° |
| 2026-05-01 11:03 | -33.19154 | 151.27412 | 871 ft | 197 kts | 94° |
| 2026-05-01 11:04 | -33.19376 | 151.29021 | 1023 ft | 192 kts | 99° |
| 2026-05-01 11:04 | -33.19672 | 151.30595 | 934 ft | 199 kts | 102° |
| 2026-05-01 11:04 | -33.20078 | 151.32111 | 1200 ft | 186 kts | 107° |
| 2026-05-01 11:04 | -33.20599 | 151.33524 | 1373 ft | 186 kts | 112° |
| 2026-05-01 11:05 | -33.21272 | 151.34878 | 1171 ft | 196 kts | 122° |
| 2026-05-01 11:05 | -33.21883 | 151.36282 | 739 ft | 196 kts | 85° |
| 2026-05-01 11:05 | -33.21693 | 151.37906 | 489 ft | 192 kts | 80° |
| 2026-05-01 11:05 | -33.22306 | 151.39195 | 627 ft | 177 kts | 134° |
| 2026-05-01 11:06 | -33.23119 | 151.40193 | 822 ft | 166 kts | 121° |
| 2026-05-01 11:06 | -33.23797 | 151.41380 | 682 ft | 174 kts | 120° |
| 2026-05-01 11:06 | -33.24518 | 151.42548 | 594 ft | 176 kts | 123° |
| 2026-05-01 11:07 | -33.25529 | 151.45122 | 510 ft | 176 kts | 104° |
| 2026-05-01 11:07 | -33.25700 | 151.46568 | 507 ft | 173 kts | 86° |
| 2026-05-01 11:07 | -33.25541 | 151.48007 | 379 ft | 176 kts | 73° |
| 2026-05-01 11:07 | -33.25236 | 151.49429 | 357 ft | 175 kts | 72° |
| 2026-05-01 11:08 | -33.24959 | 151.50835 | 446 ft | 171 kts | 75° |
| 2026-05-01 11:08 | -33.24714 | 151.52216 | 464 ft | 173 kts | 76° |
| 2026-05-01 11:08 | -33.24169 | 151.54974 | 579 ft | 173 kts | 73° |
| 2026-05-01 11:09 | -33.23858 | 151.56395 | 378 ft | 182 kts | 73° |
| 2026-05-01 11:09 | -33.23455 | 151.57823 | 362 ft | 179 kts | 66° |
| 2026-05-01 11:09 | -33.22862 | 151.59108 | 429 ft | 175 kts | 56° |
| 2026-05-01 11:10 | -33.21262 | 151.61311 | 430 ft | 179 kts | 44° |
| 2026-05-01 11:10 | -33.20265 | 151.62224 | 412 ft | 183 kts | 29° |
| 2026-05-01 11:10 | -33.19110 | 151.62888 | 376 ft | 185 kts | 24° |
| 2026-05-01 11:10 | -33.17845 | 151.63322 | 273 ft | 188 kts | 13° |
| 2026-05-01 11:11 | -33.16569 | 151.63702 | 185 ft | 189 kts | 15° |
| 2026-05-01 11:11 | -33.15300 | 151.64070 | 277 ft | 186 kts | 14° |
| 2026-05-01 11:11 | -33.14069 | 151.64533 | 326 ft | 185 kts | 21° |
| 2026-05-01 11:11 | -33.12872 | 151.65099 | 418 ft | 176 kts | 19° |
| 2026-05-01 11:12 | -33.12516 | 151.65869 | 969 ft | 137 kts | 131° |
| 2026-05-01 11:12 | -33.13266 | 151.65413 | 112 ft | 139 kts | 280° |
| 2026-05-01 11:12 | -33.12508 | 151.64917 | 125 ft | 146 kts | 8° |
| 2026-05-01 11:12 | -33.11470 | 151.65210 | 167 ft | 155 kts | 18° |
| 2026-05-01 11:13 | -33.10448 | 151.65698 | 61 ft | 166 kts | 23° |
| 2026-05-01 11:13 | -33.09399 | 151.66304 | 153 ft | 166 kts | 24° |
| 2026-05-01 11:13 | -33.08255 | 151.66599 | 236 ft | 169 kts | 3° |
| 2026-05-01 11:13 | -33.07061 | 151.66760 | 221 ft | 174 kts | 10° |
| 2026-05-01 11:14 | -33.05920 | 151.67239 | 367 ft | 170 kts | 27° |
| 2026-05-01 11:14 | -33.04997 | 151.68042 | 687 ft | 161 kts | 40° |
| 2026-05-01 11:14 | -33.04211 | 151.68964 | 973 ft | 160 kts | 46° |
| 2026-05-01 11:14 | -33.03398 | 151.69963 | 911 ft | 175 kts | 45° |
| 2026-05-01 11:15 | -33.02665 | 151.71130 | 845 ft | 177 kts | 60° |
| 2026-05-01 11:15 | -33.01992 | 151.72340 | 982 ft | 171 kts | 47° |
| 2026-05-01 11:15 | -33.01240 | 151.73184 | 1666 ft | 123 kts | 44° |
| 2026-05-01 11:15 | -33.00641 | 151.73886 | 1913 ft | 124 kts | 41° |
| 2026-05-01 11:16 | -32.99784 | 151.74414 | 1215 ft | 177 kts | 6° |
| 2026-05-01 11:16 | -32.98524 | 151.74483 | 974 ft | 182 kts | 13° |
| 2026-05-01 11:16 | -32.97469 | 151.75151 | 1105 ft | 164 kts | 32° |
| 2026-05-01 11:16 | -32.96526 | 151.75929 | 947 ft | 171 kts | 36° |
| 2026-05-01 11:17 | -32.95560 | 151.76758 | 981 ft | 167 kts | 36° |
| 2026-05-01 11:17 | -32.94635 | 151.77565 | 1051 ft | 165 kts | 38° |
| 2026-05-01 11:17 | -32.93742 | 151.78442 | 1004 ft | 163 kts | 41° |
| 2026-05-01 11:17 | -32.92809 | 151.79231 | 939 ft | 165 kts | 34° |
| 2026-05-01 11:18 | -32.91864 | 151.80017 | 1035 ft | 165 kts | 37° |
| 2026-05-01 11:18 | -32.90931 | 151.80882 | 1050 ft | 171 kts | 37° |
| 2026-05-01 11:18 | -32.90024 | 151.81722 | 1153 ft | 161 kts | 38° |
| 2026-05-01 11:18 | -32.89168 | 151.82526 | 1344 ft | 151 kts | 38° |
| 2026-05-01 11:19 | -32.88354 | 151.83334 | 1348 ft | 161 kts | 41° |
| 2026-05-01 11:19 | -32.87508 | 151.84204 | 1129 ft | 153 kts | 37° |
| 2026-05-01 11:19 | -32.86679 | 151.84970 | 1000 ft | 150 kts | 37° |
| 2026-05-01 11:19 | -32.85831 | 151.85707 | 856 ft | 155 kts | 37° |
| 2026-05-01 11:20 | -32.85067 | 151.86542 | 875 ft | 144 kts | 42° |
| 2026-05-01 11:20 | -32.84335 | 151.87363 | 823 ft | 147 kts | 38° |
| 2026-05-01 11:20 | -32.83395 | 151.87889 | 732 ft | 143 kts | 8° |
| 2026-05-01 11:20 | -32.82527 | 151.87639 | 719 ft | 127 kts | 318° |
| 2026-05-01 11:21 | -32.81808 | 151.86926 | 621 ft | 132 kts | 314° |
| 2026-05-01 11:21 | -32.81253 | 151.86145 | 486 ft | 118 kts | 295° |
| 2026-05-01 11:21 | -32.80890 | 151.85298 | 297 ft | 98 kts | 304° |
| 2026-05-01 11:21 | -32.80566 | 151.84758 | 184 ft | 72 kts | 317° |
| 2026-05-01 11:22 | -32.80261 | 151.84404 | 59 ft | 39 kts | 305° |
| 2026-05-01 11:22 | -32.80096 | 151.84180 | 36 ft | 28 kts | 313° |
| 2026-05-01 11:22 | -32.79984 | 151.84019 | 30 ft | 22 kts | 306° |
| 2026-05-01 11:22 | -32.79901 | 151.83910 | 30 ft | 11 kts | 311° |
| 2026-05-01 11:23 | -32.79847 | 151.83900 | 31 ft | 7 kts | 28° |
| 2026-05-01 11:23 | -32.79802 | 151.83958 | 31 ft | 12 kts | 49° |
| 2026-05-01 11:23 | -32.79749 | 151.84041 | 30 ft | 12 kts | 52° |
| 2026-05-01 11:23 | -32.79706 | 151.84111 | 30 ft | 8 kts | 59° |
| 2026-05-01 11:24 | -32.79717 | 151.84164 | 30 ft | 7 kts | 134° |
| 2026-05-01 11:24 | -32.79762 | 151.84204 | 30 ft | 7 kts | 143° |
| 2026-05-01 11:24 | -32.79793 | 151.84255 | 30 ft | 1 kts | 53° |
| 2026-05-01 11:25 | -32.79792 | 151.84256 | 30 ft | 0 kts | 55° |